Terminal Aerodrome Forecast
Issued by NWS

Current Version | Previous Version | Text Only | Print | Product List | Glossary On
Versions: 1 2 3 4 5 6 7 8 9 10 11 12 13 14 15 16 17 18 19 20 21 22 23 24 25 26 27 28
451
FTUS44 KFWD 142335
TAFFTW
TAF
KFTW 142335Z 1500/1524 VRB04KT P6SM SCT035 BKN050
     FM150500 02006KT P6SM BKN015
     FM150700 36007KT P6SM OVC009
     FM151300 35010KT P6SM OVC015
     FM151600 34015KT P6SM SCT020 BKN150
     FM152200 32009KT P6SM SKC=

USA.gov is the U.S. government's official web portal to all federal, state and local government web resources and services.